createdAt,value
2022-08-08T00:02:31.511Z,101225.66
2022-08-08T00:08:04.762Z,101225.94
2022-08-08T00:14:17.420Z,101230.92
2022-08-08T00:19:14.281Z,101235.66
2022-08-08T00:24:24.078Z,101239.05
2022-08-08T00:29:46.982Z,101241.40
2022-08-08T00:35:18.637Z,101240.13
2022-08-08T00:41:12.598Z,101239.41
2022-08-08T00:45:56.581Z,101239.06
2022-08-08T00:51:39.079Z,101240.88
2022-08-08T00:56:57.798Z,101239.66
2022-08-08T01:03:58.583Z,101239.08
2022-08-08T01:08:33.844Z,101232.11
2022-08-08T01:14:16.293Z,101232.28
2022-08-08T01:20:02.607Z,101229.61
2022-08-08T01:25:42.871Z,101231.02
2022-08-08T01:32:05.686Z,101225.81
2022-08-08T01:37:13.765Z,101222.98
2022-08-08T01:42:35.538Z,101220.62
2022-08-08T01:48:16.559Z,101218.88
2022-08-08T01:55:16.258Z,101220.11
2022-08-08T01:59:08.077Z,101218.91
2022-08-08T02:04:29.618Z,101209.48
2022-08-08T02:10:02.581Z,101205.59
2022-08-08T02:15:16.123Z,101209.01
2022-08-08T02:21:01.426Z,101220.17
2022-08-08T02:26:16.751Z,101232.29
2022-08-08T02:32:00.404Z,101236.16
2022-08-08T02:37:53.443Z,101238.79
2022-08-08T02:44:38.333Z,101247.30
2022-08-08T02:49:50.882Z,101246.59
2022-08-08T02:55:20.803Z,101240.76
2022-08-08T03:00:36.584Z,101246.67
2022-08-08T03:06:02.177Z,101241.52
2022-08-08T03:12:01.912Z,101243.09
2022-08-08T03:17:34.036Z,101241.27
2022-08-08T03:22:56.652Z,101241.34
2022-08-08T03:28:18.792Z,101247.36
2022-08-08T03:33:56.972Z,101249.31
2022-08-08T03:38:57.564Z,101248.11
2022-08-08T03:44:10.660Z,101253.73
2022-08-08T03:50:00.382Z,101252.42
2022-08-08T03:55:02.511Z,101256.88
2022-08-08T04:00:18.222Z,101259.15
2022-08-08T04:05:28.010Z,101261.62
2022-08-08T04:10:35.232Z,101258.38
2022-08-08T04:15:39.279Z,101252.33
2022-08-08T04:21:01.753Z,101255.73
2022-08-08T04:26:10.731Z,101259.48
2022-08-08T04:31:56.818Z,101265.38
2022-08-08T04:36:38.402Z,101269.70
2022-08-08T04:41:41.201Z,101272.41
2022-08-08T04:46:45.027Z,101276.46
2022-08-08T04:51:57.194Z,101276.30
2022-08-08T04:57:00.385Z,101275.23
2022-08-08T05:02:03.457Z,101273.14
2022-08-08T05:07:07.024Z,101276.35
2022-08-08T05:12:09.990Z,101281.71
2022-08-08T05:17:23.998Z,101284.13
2022-08-08T05:22:27.947Z,101289.48
2022-08-08T05:27:33.263Z,101294.47
2022-08-08T05:32:39.352Z,101286.89
2022-08-08T05:37:53.440Z,101290.04
2022-08-08T05:43:38.397Z,101289.19
2022-08-08T05:48:34.612Z,101289.20
2022-08-08T05:53:56.165Z,101290.30
2022-08-08T05:59:05.549Z,101291.64
2022-08-08T06:04:22.564Z,101292.98
2022-08-08T06:09:58.482Z,101292.85
2022-08-08T06:14:58.352Z,101296.59
2022-08-08T06:20:12.521Z,101296.90
2022-08-08T06:25:18.931Z,101301.75
2022-08-08T06:30:44.501Z,101299.20
2022-08-08T06:36:07.222Z,101300.36
2022-08-08T06:41:15.213Z,101298.34
2022-08-08T06:46:18.625Z,101297.84
2022-08-08T06:51:46.717Z,101298.13
2022-08-08T06:56:51.286Z,101298.92
2022-08-08T07:02:27.678Z,101292.50
2022-08-08T07:07:55.240Z,101288.66
2022-08-08T07:13:06.149Z,101285.26
2022-08-08T07:18:35.488Z,101286.92
2022-08-08T07:23:57.618Z,101284.63
2022-08-08T07:29:08.132Z,101289.68
2022-08-08T07:34:26.791Z,101290.30
2022-08-08T07:39:45.819Z,101289.93
2022-08-08T07:44:59.491Z,101297.23
2022-08-08T07:50:05.247Z,101297.08
2022-08-08T07:55:17.576Z,101297.71
2022-08-08T08:00:23.903Z,101298.60
2022-08-08T08:05:33.413Z,101299.97
2022-08-08T08:10:39.470Z,101301.89
2022-08-08T08:15:42.373Z,101301.98
2022-08-08T08:20:46.041Z,101299.80
2022-08-08T08:25:51.892Z,101305.36
2022-08-08T08:31:04.779Z,101310.05
2022-08-08T08:36:18.826Z,101311.02
2022-08-08T08:41:25.557Z,101308.77
2022-08-08T08:46:35.698Z,101307.58
2022-08-08T08:51:51.741Z,101302.49
2022-08-08T08:56:56.214Z,101303.47
2022-08-08T09:02:00.039Z,101299.63
2022-08-08T09:07:12.197Z,101296.92
2022-08-08T09:12:19.886Z,101297.26
2022-08-08T09:17:41.024Z,101299.81
2022-08-08T09:22:46.201Z,101300.44
2022-08-08T09:27:57.009Z,101298.00
2022-08-08T09:33:55.006Z,101293.52
2022-08-08T09:38:53.389Z,101297.69
2022-08-08T09:44:05.632Z,101300.67
2022-08-08T09:49:42.840Z,101299.68
2022-08-08T09:54:43.985Z,101301.45
2022-08-08T10:00:14.724Z,101301.79
2022-08-08T10:05:25.463Z,101303.05
2022-08-08T10:10:33.006Z,101305.41
2022-08-08T10:15:39.179Z,101306.89
2022-08-08T10:20:57.724Z,101307.04
2022-08-08T10:26:04.283Z,101304.23
2022-08-08T10:31:47.396Z,101300.02
2022-08-08T10:36:51.875Z,101300.48
2022-08-08T10:42:16.881Z,101295.11
2022-08-08T10:47:21.024Z,101295.08
2022-08-08T10:52:31.134Z,101292.83
2022-08-08T10:57:41.421Z,101290.87
2022-08-08T11:02:55.243Z,101288.27
2022-08-08T11:08:30.814Z,101293.25
2022-08-08T11:13:30.070Z,101291.57
2022-08-08T11:18:37.009Z,101291.96
2022-08-08T11:23:42.350Z,101293.29
2022-08-08T11:28:46.158Z,101290.52
2022-08-08T11:34:01.479Z,101284.71
2022-08-08T11:39:13.019Z,101290.27
2022-08-08T11:44:16.160Z,101287.33
2022-08-08T11:49:20.386Z,101284.70
2022-08-08T11:54:38.355Z,101282.84
2022-08-08T12:00:02.088Z,101282.98
2022-08-08T12:05:13.525Z,101279.10
2022-08-08T12:10:18.972Z,101282.41
2022-08-08T12:15:28.406Z,101288.30
2022-08-08T12:20:40.811Z,101288.02
2022-08-08T12:25:52.470Z,101288.10
2022-08-08T12:31:06.010Z,101287.36
2022-08-08T12:36:14.437Z,101284.67
2022-08-08T12:41:33.420Z,101292.02
2022-08-08T12:46:37.725Z,101290.67
2022-08-08T12:51:50.033Z,101289.80
2022-08-08T12:57:13.419Z,101291.66
2022-08-08T13:02:29.210Z,101288.79
2022-08-08T13:08:03.152Z,101292.79
2022-08-08T13:13:05.999Z,101287.61
2022-08-08T13:18:14.036Z,101291.23
2022-08-08T13:23:35.933Z,101291.20
2022-08-08T13:28:45.479Z,101294.62
2022-08-08T13:33:50.120Z,101293.57
2022-08-08T13:38:53.983Z,101295.77
2022-08-08T13:43:57.580Z,101299.11
2022-08-08T13:50:32.173Z,101295.36
2022-08-08T13:54:31.128Z,101301.05
2022-08-08T13:59:40.681Z,101295.39
2022-08-08T14:05:22.396Z,101293.73
2022-08-08T14:10:33.381Z,101294.48
2022-08-08T14:15:46.376Z,101293.16
2022-08-08T14:21:08.115Z,101292.50
2022-08-08T14:26:28.555Z,101297.66
2022-08-08T14:32:06.251Z,101299.46
2022-08-08T14:36:54.605Z,101299.54
2022-08-08T14:42:07.460Z,101302.34
2022-08-08T14:47:17.148Z,101304.48
2022-08-08T14:52:24.594Z,101305.05
2022-08-08T14:58:02.425Z,101302.79
2022-08-08T15:02:58.475Z,101296.98
2022-08-08T15:08:04.575Z,101299.36
2022-08-08T15:13:11.287Z,101299.77
2022-08-08T15:18:14.115Z,101294.55
2022-08-08T15:23:22.726Z,101297.29
2022-08-08T15:28:36.464Z,101296.98
2022-08-08T15:33:58.971Z,101300.65
2022-08-08T15:39:03.791Z,101305.31
2022-08-08T15:44:11.134Z,101304.17
2022-08-08T15:49:17.018Z,101303.60
2022-08-08T15:54:38.488Z,101302.09
2022-08-08T16:00:12.066Z,101302.73
2022-08-08T16:05:09.439Z,101303.62
2022-08-08T16:13:05.030Z,101301.73
2022-08-08T16:15:58.574Z,101292.32
2022-08-08T16:21:03.579Z,101287.95
2022-08-08T16:26:17.369Z,101287.90
2022-08-08T16:31:22.630Z,101288.55
2022-08-08T16:36:34.090Z,101285.37
2022-08-08T16:41:37.092Z,101289.56
2022-08-08T16:46:46.070Z,101293.71
2022-08-08T16:55:05.141Z,101298.04
2022-08-08T16:58:12.701Z,101299.48
2022-08-08T17:02:39.385Z,101300.66
2022-08-08T17:07:42.639Z,101303.20
2022-08-08T17:12:52.635Z,101306.50
2022-08-08T17:18:03.773Z,101306.63
2022-08-08T17:23:16.642Z,101307.27
2022-08-08T17:28:34.657Z,101307.59
2022-08-08T17:34:37.233Z,101313.17
2022-08-08T17:39:05.353Z,101314.29
2022-08-08T17:44:26.893Z,101315.90
2022-08-08T17:49:42.654Z,101322.81
2022-08-08T17:54:46.553Z,101327.63
2022-08-08T17:59:59.111Z,101330.45
2022-08-08T18:05:05.826Z,101334.39
2022-08-08T18:10:09.147Z,101334.98
2022-08-08T18:15:12.421Z,101338.83
2022-08-08T18:20:44.015Z,101346.18
2022-08-08T18:25:38.301Z,101352.98
2022-08-08T18:30:43.040Z,101352.94
2022-08-08T18:35:48.930Z,101355.33
2022-08-08T18:40:51.731Z,101364.25
2022-08-08T18:46:54.394Z,101364.81
2022-08-08T18:51:49.155Z,101364.91
2022-08-08T18:56:44.092Z,101368.29
2022-08-08T19:02:27.665Z,101369.37
2022-08-08T19:07:09.515Z,101371.91
2022-08-08T19:12:13.449Z,101370.90
2022-08-08T19:17:28.804Z,101384.26
2022-08-08T19:22:39.087Z,101382.42
2022-08-08T19:27:57.262Z,101383.21
2022-08-08T19:33:02.559Z,101388.35
2022-08-08T19:38:06.505Z,101389.46
2022-08-08T19:43:12.804Z,101396.89
2022-08-08T19:48:29.381Z,101393.84
2022-08-08T19:53:53.249Z,101400.06
2022-08-08T19:58:56.897Z,101409.67
2022-08-08T20:04:03.600Z,101416.22
2022-08-08T20:09:09.113Z,101418.05
2022-08-08T20:14:33.971Z,101423.64
2022-08-08T20:19:42.420Z,101425.65
2022-08-08T20:24:46.643Z,101429.86
2022-08-08T20:29:56.028Z,101432.90
2022-08-08T20:35:05.431Z,101434.46
2022-08-08T20:40:16.484Z,101436.30
2022-08-08T20:45:55.328Z,101434.96
2022-08-08T20:50:43.287Z,101430.92
2022-08-08T20:55:51.318Z,101435.65
2022-08-08T21:00:54.383Z,101439.15
2022-08-08T21:05:58.631Z,101438.23
2022-08-08T21:11:02.553Z,101440.25
2022-08-08T21:16:20.657Z,101440.34
2022-08-08T21:21:41.214Z,101446.42
2022-08-08T21:26:44.647Z,101443.96
2022-08-08T21:31:58.945Z,101446.69
2022-08-08T21:37:11.158Z,101446.15
2022-08-08T21:42:14.394Z,101449.05
2022-08-08T21:48:06.009Z,101444.56
2022-08-08T21:54:32.397Z,101454.28
2022-08-08T21:58:05.542Z,101454.81
2022-08-08T22:03:11.098Z,101455.74
2022-08-08T22:08:24.168Z,101453.09
2022-08-08T22:13:27.238Z,101450.47
2022-08-08T22:18:52.703Z,101450.69
2022-08-08T22:23:55.904Z,101446.60
2022-08-08T22:29:13.558Z,101443.98
2022-08-08T22:34:24.114Z,101447.10
2022-08-08T22:39:45.762Z,101445.93
2022-08-08T22:44:54.238Z,101443.17
2022-08-08T22:50:00.938Z,101444.48
2022-08-08T22:55:05.934Z,101439.73
2022-08-08T23:00:13.434Z,101442.18
2022-08-08T23:05:16.295Z,101439.08
2022-08-08T23:10:21.347Z,101438.95
2022-08-08T23:16:39.107Z,101436.95
2022-08-08T23:20:54.649Z,101437.52
2022-08-08T23:25:58.655Z,101437.52
2022-08-08T23:31:02.510Z,101434.74
2022-08-08T23:36:08.614Z,101434.21
2022-08-08T23:41:22.791Z,101433.69
2022-08-08T23:49:00.082Z,101438.17
2022-08-08T23:52:05.815Z,101444.73
2022-08-08T23:57:25.304Z,101439.03
